sensor_id;sensor_type;location;lat;lon;timestamp;P1;durP1;ratioP1;P2;durP2;ratioP2
57085;SDS011;42964;42.910;23.792;2023-08-08T00:00:38;6.57;;;4.72;;
57085;SDS011;42964;42.910;23.792;2023-08-08T00:05:37;7.25;;;4.80;;
57085;SDS011;42964;42.910;23.792;2023-08-08T00:15:35;6.43;;;4.47;;
57085;SDS011;42964;42.910;23.792;2023-08-08T00:20:35;5.57;;;4.10;;
57085;SDS011;42964;42.910;23.792;2023-08-08T00:30:32;6.55;;;4.53;;
57085;SDS011;42964;42.910;23.792;2023-08-08T00:40:30;6.00;;;4.72;;
57085;SDS011;42964;42.910;23.792;2023-08-08T00:50:28;5.68;;;4.47;;
57085;SDS011;42964;42.910;23.792;2023-08-08T01:00:25;10.30;;;5.00;;
57085;SDS011;42964;42.910;23.792;2023-08-08T01:05:24;9.50;;;6.15;;
57085;SDS011;42964;42.910;23.792;2023-08-08T01:10:32;8.45;;;6.22;;
57085;SDS011;42964;42.910;23.792;2023-08-08T01:15:35;9.20;;;6.40;;
57085;SDS011;42964;42.910;23.792;2023-08-08T01:20:36;10.25;;;6.55;;
57085;SDS011;42964;42.910;23.792;2023-08-08T01:25:37;10.20;;;6.63;;
57085;SDS011;42964;42.910;23.792;2023-08-08T01:30:38;10.32;;;6.78;;
57085;SDS011;42964;42.910;23.792;2023-08-08T01:35:38;8.32;;;6.18;;
57085;SDS011;42964;42.910;23.792;2023-08-08T01:40:42;8.50;;;5.85;;
57085;SDS011;42964;42.910;23.792;2023-08-08T01:45:42;8.55;;;5.97;;
57085;SDS011;42964;42.910;23.792;2023-08-08T01:50:42;7.88;;;5.50;;
57085;SDS011;42964;42.910;23.792;2023-08-08T02:00:39;7.25;;;4.75;;
57085;SDS011;42964;42.910;23.792;2023-08-08T02:05:39;6.82;;;4.70;;
57085;SDS011;42964;42.910;23.792;2023-08-08T02:15:37;6.70;;;5.60;;
57085;SDS011;42964;42.910;23.792;2023-08-08T02:20:36;7.28;;;5.43;;
57085;SDS011;42964;42.910;23.792;2023-08-08T02:25:35;7.40;;;5.32;;
57085;SDS011;42964;42.910;23.792;2023-08-08T02:35:33;7.93;;;5.75;;
57085;SDS011;42964;42.910;23.792;2023-08-08T02:45:32;7.30;;;5.45;;
57085;SDS011;42964;42.910;23.792;2023-08-08T02:55:29;9.20;;;5.47;;
57085;SDS011;42964;42.910;23.792;2023-08-08T03:05:27;6.07;;;4.75;;
57085;SDS011;42964;42.910;23.792;2023-08-08T03:15:24;6.72;;;4.53;;
57085;SDS011;42964;42.910;23.792;2023-08-08T03:25:22;6.18;;;4.57;;
57085;SDS011;42964;42.910;23.792;2023-08-08T03:35:20;9.70;;;5.32;;
57085;SDS011;42964;42.910;23.792;2023-08-08T03:45:18;8.07;;;5.75;;
57085;SDS011;42964;42.910;23.792;2023-08-08T03:55:15;11.23;;;6.07;;
57085;SDS011;42964;42.910;23.792;2023-08-08T04:05:13;11.80;;;5.50;;
57085;SDS011;42964;42.910;23.792;2023-08-08T04:15:11;7.63;;;5.40;;
57085;SDS011;42964;42.910;23.792;2023-08-08T04:25:10;7.87;;;5.83;;
57085;SDS011;42964;42.910;23.792;2023-08-08T04:35:07;5.57;;;4.10;;
57085;SDS011;42964;42.910;23.792;2023-08-08T04:45:07;8.10;;;6.00;;
57085;SDS011;42964;42.910;23.792;2023-08-08T04:50:06;11.18;;;5.38;;
57085;SDS011;42964;42.910;23.792;2023-08-08T04:55:05;8.77;;;5.63;;
57085;SDS011;42964;42.910;23.792;2023-08-08T05:00:04;7.43;;;4.97;;
57085;SDS011;42964;42.910;23.792;2023-08-08T05:05:07;8.05;;;5.10;;
57085;SDS011;42964;42.910;23.792;2023-08-08T05:10:06;7.68;;;5.65;;
57085;SDS011;42964;42.910;23.792;2023-08-08T05:15:05;7.10;;;5.38;;
57085;SDS011;42964;42.910;23.792;2023-08-08T05:20:04;7.78;;;6.25;;
57085;SDS011;42964;42.910;23.792;2023-08-08T05:25:04;12.18;;;7.20;;
57085;SDS011;42964;42.910;23.792;2023-08-08T05:30:03;15.43;;;7.95;;
57085;SDS011;42964;42.910;23.792;2023-08-08T05:35:03;14.57;;;7.65;;
57085;SDS011;42964;42.910;23.792;2023-08-08T05:40:03;11.40;;;6.50;;
57085;SDS011;42964;42.910;23.792;2023-08-08T05:45:04;13.20;;;7.13;;
57085;SDS011;42964;42.910;23.792;2023-08-08T05:50:04;16.52;;;7.65;;
57085;SDS011;42964;42.910;23.792;2023-08-08T05:55:04;9.52;;;6.28;;
57085;SDS011;42964;42.910;23.792;2023-08-08T06:00:04;7.68;;;5.57;;
57085;SDS011;42964;42.910;23.792;2023-08-08T06:05:04;7.05;;;5.20;;
57085;SDS011;42964;42.910;23.792;2023-08-08T06:10:04;8.68;;;5.40;;
57085;SDS011;42964;42.910;23.792;2023-08-08T06:15:03;8.13;;;4.68;;
57085;SDS011;42964;42.910;23.792;2023-08-08T06:20:03;7.47;;;4.25;;
57085;SDS011;42964;42.910;23.792;2023-08-08T06:25:03;5.55;;;3.05;;
57085;SDS011;42964;42.910;23.792;2023-08-08T06:30:02;6.50;;;3.75;;
57085;SDS011;42964;42.910;23.792;2023-08-08T06:35:02;6.30;;;4.13;;
57085;SDS011;42964;42.910;23.792;2023-08-08T06:40:01;4.75;;;3.97;;
57085;SDS011;42964;42.910;23.792;2023-08-08T06:45:00;6.43;;;3.15;;
57085;SDS011;42964;42.910;23.792;2023-08-08T06:49:59;4.68;;;2.00;;
57085;SDS011;42964;42.910;23.792;2023-08-08T06:54:58;4.60;;;2.22;;
57085;SDS011;42964;42.910;23.792;2023-08-08T06:59:57;2.25;;;1.95;;
57085;SDS011;42964;42.910;23.792;2023-08-08T07:04:56;3.20;;;1.70;;
57085;SDS011;42964;42.910;23.792;2023-08-08T07:09:55;3.42;;;1.95;;
57085;SDS011;42964;42.910;23.792;2023-08-08T07:14:54;4.45;;;1.70;;
57085;SDS011;42964;42.910;23.792;2023-08-08T07:19:53;10.70;;;2.10;;
57085;SDS011;42964;42.910;23.792;2023-08-08T07:24:52;3.28;;;1.23;;
57085;SDS011;42964;42.910;23.792;2023-08-08T07:29:51;2.95;;;1.50;;
57085;SDS011;42964;42.910;23.792;2023-08-08T07:34:50;2.58;;;1.60;;
57085;SDS011;42964;42.910;23.792;2023-08-08T07:39:52;1.15;;;1.10;;
57085;SDS011;42964;42.910;23.792;2023-08-08T07:44:51;2.88;;;1.30;;
57085;SDS011;42964;42.910;23.792;2023-08-08T07:49:49;2.40;;;1.30;;
57085;SDS011;42964;42.910;23.792;2023-08-08T07:54:48;1.30;;;1.20;;
57085;SDS011;42964;42.910;23.792;2023-08-08T07:59:47;1.90;;;1.05;;
57085;SDS011;42964;42.910;23.792;2023-08-08T08:04:46;1.00;;;1.00;;
57085;SDS011;42964;42.910;23.792;2023-08-08T08:09:45;1.25;;;1.15;;
57085;SDS011;42964;42.910;23.792;2023-08-08T08:14:44;1.17;;;1.08;;
57085;SDS011;42964;42.910;23.792;2023-08-08T08:19:43;1.95;;;1.30;;
57085;SDS011;42964;42.910;23.792;2023-08-08T08:24:42;3.80;;;1.52;;
57085;SDS011;42964;42.910;23.792;2023-08-08T08:29:41;1.83;;;1.10;;
57085;SDS011;42964;42.910;23.792;2023-08-08T08:34:40;2.10;;;1.88;;
57085;SDS011;42964;42.910;23.792;2023-08-08T08:39:39;1.05;;;1.05;;
57085;SDS011;42964;42.910;23.792;2023-08-08T08:44:38;1.40;;;1.30;;
57085;SDS011;42964;42.910;23.792;2023-08-08T08:49:39;1.40;;;1.30;;
57085;SDS011;42964;42.910;23.792;2023-08-08T08:54:41;1.45;;;0.98;;
57085;SDS011;42964;42.910;23.792;2023-08-08T08:59:41;1.92;;;1.30;;
57085;SDS011;42964;42.910;23.792;2023-08-08T09:04:40;2.83;;;1.52;;
57085;SDS011;42964;42.910;23.792;2023-08-08T09:09:40;3.85;;;1.80;;
57085;SDS011;42964;42.910;23.792;2023-08-08T09:14:41;1.20;;;1.10;;
57085;SDS011;42964;42.910;23.792;2023-08-08T09:19:44;5.25;;;3.85;;
57085;SDS011;42964;42.910;23.792;2023-08-08T09:24:43;5.70;;;2.47;;
57085;SDS011;42964;42.910;23.792;2023-08-08T09:29:44;1.60;;;1.50;;
57085;SDS011;42964;42.910;23.792;2023-08-08T09:34:43;4.55;;;1.50;;
57085;SDS011;42964;42.910;23.792;2023-08-08T09:39:43;1.60;;;1.50;;
57085;SDS011;42964;42.910;23.792;2023-08-08T09:44:42;1.50;;;1.40;;
57085;SDS011;42964;42.910;23.792;2023-08-08T09:49:41;1.67;;;1.30;;
57085;SDS011;42964;42.910;23.792;2023-08-08T09:54:42;1.48;;;1.38;;
57085;SDS011;42964;42.910;23.792;2023-08-08T09:59:41;1.75;;;1.60;;
57085;SDS011;42964;42.910;23.792;2023-08-08T10:04:40;1.30;;;1.20;;
57085;SDS011;42964;42.910;23.792;2023-08-08T10:09:40;1.88;;;1.77;;
57085;SDS011;42964;42.910;23.792;2023-08-08T10:14:41;1.90;;;1.60;;
57085;SDS011;42964;42.910;23.792;2023-08-08T10:19:49;1.50;;;1.40;;
57085;SDS011;42964;42.910;23.792;2023-08-08T10:24:54;2.05;;;1.27;;
57085;SDS011;42964;42.910;23.792;2023-08-08T10:29:54;3.05;;;1.75;;
57085;SDS011;42964;42.910;23.792;2023-08-08T10:34:54;1.67;;;1.10;;
57085;SDS011;42964;42.910;23.792;2023-08-08T10:39:54;1.13;;;1.10;;
57085;SDS011;42964;42.910;23.792;2023-08-08T10:44:57;1.38;;;1.25;;
57085;SDS011;42964;42.910;23.792;2023-08-08T10:49:58;1.20;;;1.20;;
57085;SDS011;42964;42.910;23.792;2023-08-08T10:55:05;1.30;;;1.20;;
57085;SDS011;42964;42.910;23.792;2023-08-08T11:00:47;2.25;;;1.40;;
57085;SDS011;42964;42.910;23.792;2023-08-08T11:05:29;1.33;;;1.15;;
57085;SDS011;42964;42.910;23.792;2023-08-08T11:10:36;1.20;;;1.02;;
57085;SDS011;42964;42.910;23.792;2023-08-08T11:15:37;6.72;;;5.07;;
57085;SDS011;42964;42.910;23.792;2023-08-08T11:20:36;1.20;;;1.15;;
57085;SDS011;42964;42.910;23.792;2023-08-08T11:25:35;1.10;;;1.00;;
57085;SDS011;42964;42.910;23.792;2023-08-08T11:30:42;6.35;;;5.05;;
57085;SDS011;42964;42.910;23.792;2023-08-08T11:35:44;1.70;;;1.50;;
57085;SDS011;42964;42.910;23.792;2023-08-08T11:40:45;1.38;;;1.13;;
57085;SDS011;42964;42.910;23.792;2023-08-08T11:45:44;4.53;;;3.15;;
57085;SDS011;42964;42.910;23.792;2023-08-08T11:50:43;2.55;;;1.70;;
57085;SDS011;42964;42.910;23.792;2023-08-08T11:55:43;2.53;;;1.30;;
57085;SDS011;42964;42.910;23.792;2023-08-08T12:00:42;1.60;;;1.50;;
57085;SDS011;42964;42.910;23.792;2023-08-08T12:05:47;1.65;;;1.55;;
57085;SDS011;42964;42.910;23.792;2023-08-08T12:10:47;1.40;;;1.30;;
57085;SDS011;42964;42.910;23.792;2023-08-08T12:15:54;1.67;;;1.58;;
57085;SDS011;42964;42.910;23.792;2023-08-08T12:20:54;1.70;;;1.60;;
57085;SDS011;42964;42.910;23.792;2023-08-08T12:25:53;1.98;;;1.40;;
57085;SDS011;42964;42.910;23.792;2023-08-08T12:30:52;2.00;;;1.50;;
57085;SDS011;42964;42.910;23.792;2023-08-08T12:35:51;1.90;;;1.80;;
57085;SDS011;42964;42.910;23.792;2023-08-08T12:40:50;1.83;;;1.73;;
57085;SDS011;42964;42.910;23.792;2023-08-08T12:45:49;3.58;;;1.90;;
57085;SDS011;42964;42.910;23.792;2023-08-08T12:50:48;1.90;;;1.70;;
57085;SDS011;42964;42.910;23.792;2023-08-08T12:55:47;2.22;;;1.90;;
57085;SDS011;42964;42.910;23.792;2023-08-08T13:00:46;2.70;;;2.05;;
57085;SDS011;42964;42.910;23.792;2023-08-08T13:05:45;2.25;;;1.80;;
57085;SDS011;42964;42.910;23.792;2023-08-08T13:10:44;3.55;;;1.92;;
57085;SDS011;42964;42.910;23.792;2023-08-08T13:15:42;2.13;;;2.00;;
57085;SDS011;42964;42.910;23.792;2023-08-08T13:20:44;2.25;;;2.08;;
57085;SDS011;42964;42.910;23.792;2023-08-08T13:25:42;1.70;;;1.60;;
57085;SDS011;42964;42.910;23.792;2023-08-08T13:30:41;1.85;;;1.75;;
57085;SDS011;42964;42.910;23.792;2023-08-08T13:35:41;1.90;;;1.80;;
57085;SDS011;42964;42.910;23.792;2023-08-08T13:40:41;4.07;;;2.30;;
57085;SDS011;42964;42.910;23.792;2023-08-08T13:45:40;2.03;;;1.65;;
57085;SDS011;42964;42.910;23.792;2023-08-08T13:50:39;2.28;;;1.75;;
57085;SDS011;42964;42.910;23.792;2023-08-08T13:55:38;1.95;;;1.85;;
57085;SDS011;42964;42.910;23.792;2023-08-08T14:00:38;1.98;;;1.88;;
57085;SDS011;42964;42.910;23.792;2023-08-08T14:05:37;3.10;;;1.92;;
57085;SDS011;42964;42.910;23.792;2023-08-08T14:10:36;1.80;;;1.70;;
57085;SDS011;42964;42.910;23.792;2023-08-08T14:15:35;1.70;;;1.60;;
57085;SDS011;42964;42.910;23.792;2023-08-08T14:20:34;2.83;;;1.70;;
57085;SDS011;42964;42.910;23.792;2023-08-08T14:25:33;1.70;;;1.60;;
57085;SDS011;42964;42.910;23.792;2023-08-08T14:30:32;1.73;;;1.63;;
57085;SDS011;42964;42.910;23.792;2023-08-08T14:35:31;2.20;;;2.00;;
57085;SDS011;42964;42.910;23.792;2023-08-08T14:40:30;3.65;;;1.95;;
57085;SDS011;42964;42.910;23.792;2023-08-08T14:45:30;2.35;;;2.10;;
57085;SDS011;42964;42.910;23.792;2023-08-08T14:50:29;2.17;;;1.60;;
57085;SDS011;42964;42.910;23.792;2023-08-08T14:55:28;2.58;;;1.73;;
57085;SDS011;42964;42.910;23.792;2023-08-08T15:00:27;2.05;;;1.95;;
57085;SDS011;42964;42.910;23.792;2023-08-08T15:05:26;1.70;;;1.60;;
57085;SDS011;42964;42.910;23.792;2023-08-08T15:10:25;2.50;;;1.80;;
57085;SDS011;42964;42.910;23.792;2023-08-08T15:15:24;2.10;;;1.90;;
57085;SDS011;42964;42.910;23.792;2023-08-08T15:20:26;1.80;;;1.70;;
57085;SDS011;42964;42.910;23.792;2023-08-08T15:25:25;1.90;;;1.80;;
57085;SDS011;42964;42.910;23.792;2023-08-08T15:30:24;2.58;;;1.90;;
57085;SDS011;42964;42.910;23.792;2023-08-08T15:35:23;2.13;;;2.00;;
57085;SDS011;42964;42.910;23.792;2023-08-08T15:40:22;2.95;;;1.80;;
57085;SDS011;42964;42.910;23.792;2023-08-08T15:45:21;2.40;;;2.10;;
57085;SDS011;42964;42.910;23.792;2023-08-08T15:50:19;3.08;;;2.35;;
57085;SDS011;42964;42.910;23.792;2023-08-08T15:55:18;3.53;;;2.80;;
57085;SDS011;42964;42.910;23.792;2023-08-08T16:00:17;3.55;;;2.83;;
57085;SDS011;42964;42.910;23.792;2023-08-08T16:05:17;4.05;;;2.60;;
57085;SDS011;42964;42.910;23.792;2023-08-08T16:10:16;2.47;;;2.20;;
57085;SDS011;42964;42.910;23.792;2023-08-08T16:15:15;3.20;;;2.63;;
57085;SDS011;42964;42.910;23.792;2023-08-08T16:20:16;2.90;;;2.10;;
57085;SDS011;42964;42.910;23.792;2023-08-08T16:25:15;2.10;;;2.00;;
57085;SDS011;42964;42.910;23.792;2023-08-08T16:30:14;6.90;;;4.45;;
57085;SDS011;42964;42.910;23.792;2023-08-08T16:35:13;2.03;;;1.92;;
57085;SDS011;42964;42.910;23.792;2023-08-08T16:40:12;2.40;;;2.20;;
57085;SDS011;42964;42.910;23.792;2023-08-08T16:45:11;3.55;;;2.50;;
57085;SDS011;42964;42.910;23.792;2023-08-08T16:50:10;2.22;;;2.10;;
57085;SDS011;42964;42.910;23.792;2023-08-08T16:55:09;3.17;;;2.38;;
57085;SDS011;42964;42.910;23.792;2023-08-08T17:00:09;3.83;;;2.50;;
57085;SDS011;42964;42.910;23.792;2023-08-08T17:05:08;5.10;;;2.92;;
57085;SDS011;42964;42.910;23.792;2023-08-08T17:10:08;3.38;;;3.08;;
57085;SDS011;42964;42.910;23.792;2023-08-08T17:15:08;2.65;;;2.45;;
57085;SDS011;42964;42.910;23.792;2023-08-08T17:20:07;3.00;;;2.70;;
57085;SDS011;42964;42.910;23.792;2023-08-08T17:25:07;2.83;;;2.63;;
57085;SDS011;42964;42.910;23.792;2023-08-08T17:30:06;3.67;;;2.67;;
57085;SDS011;42964;42.910;23.792;2023-08-08T17:35:08;3.13;;;2.83;;
57085;SDS011;42964;42.910;23.792;2023-08-08T17:40:07;3.17;;;2.88;;
57085;SDS011;42964;42.910;23.792;2023-08-08T17:45:08;3.10;;;2.80;;
57085;SDS011;42964;42.910;23.792;2023-08-08T17:50:07;5.00;;;3.20;;
57085;SDS011;42964;42.910;23.792;2023-08-08T17:55:07;3.00;;;2.80;;
57085;SDS011;42964;42.910;23.792;2023-08-08T18:00:06;3.80;;;3.30;;
57085;SDS011;42964;42.910;23.792;2023-08-08T18:05:06;3.40;;;3.10;;
57085;SDS011;42964;42.910;23.792;2023-08-08T18:10:06;4.10;;;3.75;;
57085;SDS011;42964;42.910;23.792;2023-08-08T18:15:06;7.63;;;4.22;;
57085;SDS011;42964;42.910;23.792;2023-08-08T18:20:05;8.23;;;4.60;;
57085;SDS011;42964;42.910;23.792;2023-08-08T18:25:06;6.55;;;5.00;;
57085;SDS011;42964;42.910;23.792;2023-08-08T18:30:06;7.53;;;4.70;;
57085;SDS011;42964;42.910;23.792;2023-08-08T18:35:05;5.70;;;4.38;;
57085;SDS011;42964;42.910;23.792;2023-08-08T18:40:05;6.72;;;4.35;;
57085;SDS011;42964;42.910;23.792;2023-08-08T18:45:04;7.45;;;4.53;;
57085;SDS011;42964;42.910;23.792;2023-08-08T18:50:04;5.05;;;4.50;;
57085;SDS011;42964;42.910;23.792;2023-08-08T18:55:04;5.43;;;4.38;;
57085;SDS011;42964;42.910;23.792;2023-08-08T19:00:03;4.97;;;4.10;;
57085;SDS011;42964;42.910;23.792;2023-08-08T19:05:05;5.15;;;4.65;;
57085;SDS011;42964;42.910;23.792;2023-08-08T19:10:04;5.18;;;4.40;;
57085;SDS011;42964;42.910;23.792;2023-08-08T19:15:04;5.20;;;4.70;;
57085;SDS011;42964;42.910;23.792;2023-08-08T19:20:05;9.98;;;5.30;;
57085;SDS011;42964;42.910;23.792;2023-08-08T19:25:05;8.00;;;4.60;;
57085;SDS011;42964;42.910;23.792;2023-08-08T19:30:04;6.63;;;4.50;;
57085;SDS011;42964;42.910;23.792;2023-08-08T19:35:04;6.70;;;5.13;;
57085;SDS011;42964;42.910;23.792;2023-08-08T19:40:04;6.38;;;4.82;;
57085;SDS011;42964;42.910;23.792;2023-08-08T19:45:03;6.88;;;5.13;;
57085;SDS011;42964;42.910;23.792;2023-08-08T19:50:04;7.22;;;5.07;;
57085;SDS011;42964;42.910;23.792;2023-08-08T19:55:04;8.20;;;5.05;;
57085;SDS011;42964;42.910;23.792;2023-08-08T20:00:03;7.20;;;5.40;;
57085;SDS011;42964;42.910;23.792;2023-08-08T20:05:04;6.47;;;5.85;;
57085;SDS011;42964;42.910;23.792;2023-08-08T20:10:04;6.38;;;5.32;;
57085;SDS011;42964;42.910;23.792;2023-08-08T20:15:04;7.45;;;5.40;;
57085;SDS011;42964;42.910;23.792;2023-08-08T20:20:04;7.97;;;5.88;;
57085;SDS011;42964;42.910;23.792;2023-08-08T20:25:03;6.25;;;5.50;;
57085;SDS011;42964;42.910;23.792;2023-08-08T20:30:03;6.78;;;5.53;;
57085;SDS011;42964;42.910;23.792;2023-08-08T20:35:02;7.45;;;6.43;;
57085;SDS011;42964;42.910;23.792;2023-08-08T20:40:01;6.63;;;5.93;;
57085;SDS011;42964;42.910;23.792;2023-08-08T20:45:01;7.07;;;5.75;;
57085;SDS011;42964;42.910;23.792;2023-08-08T20:50:01;6.40;;;5.70;;
57085;SDS011;42964;42.910;23.792;2023-08-08T20:55:00;6.68;;;5.85;;
57085;SDS011;42964;42.910;23.792;2023-08-08T21:04:57;6.50;;;5.90;;
57085;SDS011;42964;42.910;23.792;2023-08-08T21:14:55;10.30;;;8.05;;
57085;SDS011;42964;42.910;23.792;2023-08-08T21:24:53;9.82;;;7.55;;
57085;SDS011;42964;42.910;23.792;2023-08-08T21:34:50;10.10;;;7.03;;
57085;SDS011;42964;42.910;23.792;2023-08-08T21:44:48;7.72;;;6.57;;
57085;SDS011;42964;42.910;23.792;2023-08-08T21:54:46;8.85;;;6.60;;
57085;SDS011;42964;42.910;23.792;2023-08-08T22:04:43;8.23;;;7.13;;
57085;SDS011;42964;42.910;23.792;2023-08-08T22:14:41;8.35;;;7.55;;
57085;SDS011;42964;42.910;23.792;2023-08-08T22:19:40;9.02;;;7.72;;
57085;SDS011;42964;42.910;23.792;2023-08-08T22:24:40;9.48;;;7.85;;
57085;SDS011;42964;42.910;23.792;2023-08-08T22:34:38;9.02;;;7.55;;
57085;SDS011;42964;42.910;23.792;2023-08-08T22:44:35;8.48;;;7.53;;
57085;SDS011;42964;42.910;23.792;2023-08-08T22:54:33;10.82;;;8.23;;
57085;SDS011;42964;42.910;23.792;2023-08-08T23:04:31;8.60;;;7.75;;
57085;SDS011;42964;42.910;23.792;2023-08-08T23:09:30;9.07;;;8.02;;
57085;SDS011;42964;42.910;23.792;2023-08-08T23:19:27;10.32;;;8.35;;
57085;SDS011;42964;42.910;23.792;2023-08-08T23:29:25;11.27;;;8.40;;
57085;SDS011;42964;42.910;23.792;2023-08-08T23:34:24;10.45;;;8.07;;
57085;SDS011;42964;42.910;23.792;2023-08-08T23:39:23;10.20;;;8.80;;
57085;SDS011;42964;42.910;23.792;2023-08-08T23:44:22;10.82;;;9.40;;
57085;SDS011;42964;42.910;23.792;2023-08-08T23:49:21;11.05;;;9.80;;
57085;SDS011;42964;42.910;23.792;2023-08-08T23:54:20;12.13;;;9.35;;
57085;SDS011;42964;42.910;23.792;2023-08-08T23:59:19;11.48;;;10.20;;
